createdAt,value
2022-11-30T00:01:25.261Z,102179.56
2022-11-30T00:03:57.263Z,102181.88
2022-11-30T00:06:25.577Z,102181.03
2022-11-30T00:08:57.378Z,102180.81
2022-11-30T00:11:27.505Z,102179.16
2022-11-30T00:13:55.084Z,102188.56
2022-11-30T00:16:22.738Z,102184.06
2022-11-30T00:18:50.260Z,102184.16
2022-11-30T00:21:19.735Z,102187.31
2022-11-30T00:23:48.516Z,102183.19
2022-11-30T00:26:19.009Z,102189.63
2022-11-30T00:28:48.540Z,102195.69
2022-11-30T00:31:18.590Z,102192.34
2022-11-30T00:33:46.271Z,102192.53
2022-11-30T00:36:24.713Z,102196.31
2022-11-30T00:38:52.456Z,102196.97
2022-11-30T00:41:20.388Z,102197.69
2022-11-30T00:43:51.108Z,102199.47
2022-11-30T00:46:18.260Z,102190.25
2022-11-30T00:48:47.706Z,102201.66
2022-11-30T00:51:15.058Z,102198.91
2022-11-30T00:53:42.462Z,102195.59
2022-11-30T00:56:10.631Z,102198.22
2022-11-30T00:58:37.887Z,102201.22
2022-11-30T01:01:05.411Z,102192.66
2022-11-30T01:03:34.730Z,102196.00
2022-11-30T01:06:07.612Z,102194.19
2022-11-30T01:08:40.245Z,102196.31
2022-11-30T01:11:18.290Z,102193.19
2022-11-30T01:13:45.369Z,102199.03
2022-11-30T01:16:18.596Z,102189.84
2022-11-30T01:18:45.903Z,102203.25
2022-11-30T01:21:18.337Z,102200.09
2022-11-30T01:23:46.068Z,102204.44
2022-11-30T01:26:13.552Z,102210.13
2022-11-30T01:28:46.823Z,102213.91
2022-11-30T01:31:15.141Z,102208.88
2022-11-30T01:33:45.210Z,102212.22
2022-11-30T01:36:21.544Z,102209.63
2022-11-30T01:38:53.203Z,102213.03
2022-11-30T01:41:31.069Z,102207.81
2022-11-30T01:44:20.149Z,102210.50
2022-11-30T01:47:09.322Z,102209.44
2022-11-30T01:50:05.138Z,102216.75
2022-11-30T01:52:47.239Z,102226.78
2022-11-30T01:55:36.083Z,102218.59
2022-11-30T01:58:17.668Z,102219.78
2022-11-30T02:00:48.776Z,102218.66
2022-11-30T02:03:42.363Z,102219.19
2022-11-30T02:06:10.022Z,102223.31
2022-11-30T02:08:37.204Z,102224.38
2022-11-30T02:11:11.284Z,102226.06
2022-11-30T02:14:06.008Z,102222.16
2022-11-30T02:16:59.087Z,102220.94
2022-11-30T02:19:50.818Z,102231.84
2022-11-30T02:22:29.785Z,102229.81
2022-11-30T02:25:26.017Z,102221.84
2022-11-30T02:28:32.838Z,102225.91
2022-11-30T02:31:02.449Z,102228.34
2022-11-30T02:33:34.058Z,102227.09
2022-11-30T02:36:03.837Z,102223.22
2022-11-30T02:38:31.001Z,102227.94
2022-11-30T02:40:58.042Z,102226.28
2022-11-30T02:43:28.532Z,102241.38
2022-11-30T02:46:45.164Z,102232.31
2022-11-30T02:49:35.931Z,102230.41
2022-11-30T02:52:04.712Z,102239.03
2022-11-30T02:54:35.081Z,102227.13
2022-11-30T02:57:02.124Z,102230.16
2022-11-30T02:59:29.872Z,102233.78
2022-11-30T03:01:57.547Z,102232.59
2022-11-30T03:04:24.717Z,102234.19
2022-11-30T03:06:54.258Z,102235.56
2022-11-30T03:09:21.345Z,102247.25
2022-11-30T03:11:50.415Z,102241.84
2022-11-30T03:14:17.389Z,102234.97
2022-11-30T03:16:44.463Z,102241.19
2022-11-30T03:19:11.476Z,102246.94
2022-11-30T03:21:38.577Z,102248.78
2022-11-30T03:24:05.949Z,102241.22
2022-11-30T03:26:32.989Z,102248.47
2022-11-30T03:29:00.084Z,102242.13
2022-11-30T03:31:27.221Z,102254.50
2022-11-30T03:33:54.315Z,102252.47
2022-11-30T03:36:21.334Z,102252.31
2022-11-30T03:38:48.509Z,102254.19
2022-11-30T03:41:17.973Z,102243.88
2022-11-30T03:43:46.891Z,102249.06
2022-11-30T03:46:16.673Z,102254.72
2022-11-30T03:48:44.203Z,102265.06
2022-11-30T03:51:13.379Z,102254.34
2022-11-30T03:53:41.476Z,102270.94
2022-11-30T03:56:10.680Z,102261.41
2022-11-30T03:58:38.455Z,102268.81
2022-11-30T04:01:10.918Z,102265.06
2022-11-30T04:03:41.198Z,102266.53
2022-11-30T04:06:13.449Z,102265.88
2022-11-30T04:08:41.332Z,102272.47
2022-11-30T04:11:08.932Z,102277.78
2022-11-30T04:13:40.115Z,102277.72
2022-11-30T04:16:08.389Z,102277.47
2022-11-30T04:18:39.125Z,102278.50
2022-11-30T04:21:07.373Z,102280.69
2022-11-30T04:23:40.332Z,102276.44
2022-11-30T04:26:14.790Z,102277.75
2022-11-30T04:28:42.452Z,102283.91
2022-11-30T04:31:10.101Z,102292.44
2022-11-30T04:33:39.868Z,102290.09
2022-11-30T04:36:18.869Z,102281.28
2022-11-30T04:38:46.422Z,102297.19
2022-11-30T04:41:13.808Z,102287.28
2022-11-30T04:43:40.879Z,102290.38
2022-11-30T04:46:08.188Z,102294.97
2022-11-30T04:48:35.654Z,102290.16
2022-11-30T04:51:06.201Z,102279.88
2022-11-30T04:53:37.897Z,102295.88
2022-11-30T04:56:10.172Z,102288.56
2022-11-30T04:58:39.051Z,102286.69
2022-11-30T05:01:07.183Z,102298.94
2022-11-30T05:03:34.286Z,102296.06
2022-11-30T05:06:01.599Z,102291.03
2022-11-30T05:08:28.739Z,102298.47
2022-11-30T05:10:55.792Z,102300.66
2022-11-30T05:13:25.291Z,102310.44
2022-11-30T05:15:53.984Z,102299.97
2022-11-30T05:18:21.304Z,102302.59
2022-11-30T05:20:53.220Z,102301.81
2022-11-30T05:23:21.232Z,102312.84
2022-11-30T05:25:48.639Z,102308.56
2022-11-30T05:28:15.990Z,102315.13
2022-11-30T05:30:44.010Z,102304.84
2022-11-30T05:33:13.593Z,102309.13
2022-11-30T05:35:40.658Z,102320.91
2022-11-30T05:38:07.817Z,102311.47
2022-11-30T05:43:04.724Z,102306.41
2022-11-30T05:45:32.094Z,102315.66
2022-11-30T05:47:59.161Z,102313.03
2022-11-30T05:50:26.281Z,102332.44
2022-11-30T05:52:56.612Z,102324.97
2022-11-30T05:55:28.976Z,102337.34
2022-11-30T05:57:55.970Z,102342.16
2022-11-30T06:00:25.394Z,102338.22
2022-11-30T06:03:00.405Z,102342.72
2022-11-30T06:05:28.467Z,102338.78
2022-11-30T06:07:59.306Z,102347.53
2022-11-30T06:10:27.389Z,102342.13
2022-11-30T06:12:54.369Z,102367.09
2022-11-30T06:15:21.429Z,102347.88
2022-11-30T06:17:48.441Z,102355.66
2022-11-30T06:20:16.195Z,102358.13
2022-11-30T06:22:46.694Z,102355.72
2022-11-30T06:25:15.052Z,102367.28
2022-11-30T06:27:43.745Z,102354.44
2022-11-30T06:30:11.891Z,102361.63
2022-11-30T06:32:39.011Z,102363.88
2022-11-30T06:35:06.554Z,102363.53
2022-11-30T06:37:36.806Z,102375.63
2022-11-30T06:40:06.999Z,102363.59
2022-11-30T06:42:34.991Z,102371.88
2022-11-30T06:45:02.193Z,102363.50
2022-11-30T06:47:29.212Z,102361.16
2022-11-30T06:49:58.922Z,102375.72
2022-11-30T06:52:28.905Z,102386.69
2022-11-30T06:54:55.853Z,102371.16
2022-11-30T06:57:30.450Z,102373.63
2022-11-30T06:59:57.904Z,102370.84
2022-11-30T07:02:27.153Z,102379.69
2022-11-30T07:04:54.188Z,102380.41
2022-11-30T07:07:21.563Z,102387.03
2022-11-30T07:09:52.277Z,102385.34
2022-11-30T07:12:19.439Z,102385.22
2022-11-30T07:14:46.733Z,102391.16
2022-11-30T07:17:14.077Z,102393.38
2022-11-30T07:19:41.148Z,102394.81
2022-11-30T07:22:08.128Z,102407.72
2022-11-30T07:24:53.421Z,102403.00
2022-11-30T07:27:20.436Z,102409.19
2022-11-30T07:29:49.042Z,102413.84
2022-11-30T07:32:16.098Z,102416.34
2022-11-30T07:34:44.356Z,102424.34
2022-11-30T07:37:13.541Z,102418.34
2022-11-30T07:39:40.664Z,102426.78
2022-11-30T07:42:07.966Z,102416.06
2022-11-30T07:44:35.326Z,102415.00
2022-11-30T07:47:02.665Z,102422.25
2022-11-30T07:49:29.651Z,102424.00
2022-11-30T07:51:56.751Z,102418.19
2022-11-30T07:54:23.734Z,102413.78
2022-11-30T07:56:50.734Z,102418.75
2022-11-30T07:59:17.965Z,102421.88
2022-11-30T08:01:45.130Z,102426.00
2022-11-30T08:04:14.987Z,102426.59
2022-11-30T08:06:42.235Z,102422.22
2022-11-30T08:09:17.866Z,102425.88
2022-11-30T08:11:49.182Z,102418.91
2022-11-30T08:14:17.670Z,102434.94
2022-11-30T08:16:44.836Z,102422.25
2022-11-30T08:19:11.896Z,102417.38
2022-11-30T08:21:38.895Z,102423.38
2022-11-30T08:24:06.268Z,102424.34
2022-11-30T08:26:34.421Z,102420.97
2022-11-30T08:29:02.289Z,102427.22
2022-11-30T08:31:35.930Z,102429.84
2022-11-30T08:34:10.843Z,102427.84
2022-11-30T08:36:41.853Z,102432.28
2022-11-30T08:39:12.459Z,102432.63
2022-11-30T08:41:39.489Z,102438.91
2022-11-30T08:44:06.876Z,102440.94
2022-11-30T08:46:50.890Z,102439.41
2022-11-30T08:49:24.488Z,102441.44
2022-11-30T08:54:46.056Z,102448.47
2022-11-30T08:57:18.842Z,102464.09
2022-11-30T08:59:46.588Z,102464.44
2022-11-30T09:02:19.616Z,102460.31
2022-11-30T09:04:49.376Z,102473.69
2022-11-30T09:07:21.374Z,102473.16
2022-11-30T09:09:48.497Z,102469.91
2022-11-30T09:12:15.543Z,102470.34
2022-11-30T09:14:42.818Z,102471.66
2022-11-30T09:17:09.994Z,102482.66
2022-11-30T09:19:37.222Z,102467.69
2022-11-30T09:22:04.315Z,102468.59
2022-11-30T09:24:31.396Z,102483.25
2022-11-30T09:26:58.513Z,102473.25
2022-11-30T09:29:25.591Z,102467.84
2022-11-30T09:31:55.714Z,102465.78
2022-11-30T09:34:22.705Z,102475.75
2022-11-30T09:36:49.714Z,102471.31
2022-11-30T09:39:16.815Z,102461.50
2022-11-30T09:42:24.378Z,102463.16
2022-11-30T09:44:57.154Z,102473.72
2022-11-30T09:48:11.548Z,102466.91
2022-11-30T09:50:44.109Z,102472.06
2022-11-30T09:53:29.715Z,102463.25
2022-11-30T09:55:58.946Z,102463.75
2022-11-30T09:58:44.954Z,102466.38
2022-11-30T10:01:20.838Z,102458.13
2022-11-30T10:03:52.881Z,102464.88
2022-11-30T10:07:02.697Z,102464.47
2022-11-30T10:13:26.812Z,102458.03
2022-11-30T10:16:19.278Z,102452.72
2022-11-30T10:19:10.942Z,102449.19
2022-11-30T10:22:04.939Z,102458.63
2022-11-30T10:25:08.712Z,102460.34
2022-11-30T10:27:55.568Z,102455.13
2022-11-30T10:30:26.227Z,102456.09
2022-11-30T10:32:56.634Z,102457.75
2022-11-30T10:35:43.294Z,102450.69
2022-11-30T10:38:33.937Z,102456.22
2022-11-30T10:41:29.005Z,102449.34
2022-11-30T10:44:04.075Z,102459.69
2022-11-30T10:46:38.358Z,102454.88
2022-11-30T10:49:19.917Z,102446.75
2022-11-30T10:51:53.613Z,102459.75
2022-11-30T10:54:22.820Z,102443.56
2022-11-30T10:56:50.012Z,102441.94
2022-11-30T10:59:33.666Z,102446.75
2022-11-30T11:02:01.401Z,102447.88
2022-11-30T11:04:28.675Z,102446.91
2022-11-30T11:07:07.248Z,102444.69
2022-11-30T11:09:53.594Z,102445.22
2022-11-30T11:12:30.751Z,102445.25
2022-11-30T11:15:32.355Z,102442.53
2022-11-30T11:18:26.254Z,102451.88
2022-11-30T11:21:08.194Z,102453.78
2022-11-30T11:23:42.523Z,102451.50
2022-11-30T11:26:29.603Z,102459.06
2022-11-30T11:28:59.658Z,102460.66
2022-11-30T11:31:49.179Z,102463.03
2022-11-30T11:34:34.506Z,102467.69
2022-11-30T11:37:33.881Z,102459.63
2022-11-30T11:40:02.368Z,102452.63
2022-11-30T11:42:53.054Z,102451.78
2022-11-30T11:45:37.144Z,102448.69
2022-11-30T11:48:37.704Z,102439.81
2022-11-30T11:51:09.380Z,102449.34
2022-11-30T11:53:51.699Z,102451.47
2022-11-30T11:56:37.788Z,102443.38
2022-11-30T11:59:42.247Z,102455.03
2022-11-30T12:02:36.457Z,102454.59
2022-11-30T12:05:17.780Z,102463.84
2022-11-30T12:08:10.355Z,102463.00
2022-11-30T12:10:51.868Z,102462.91
2022-11-30T12:13:27.276Z,102465.63
2022-11-30T12:16:12.390Z,102467.84
2022-11-30T12:19:15.164Z,102468.78
2022-11-30T12:22:15.142Z,102467.94
2022-11-30T12:25:18.623Z,102470.44
2022-11-30T12:28:35.093Z,102466.16
2022-11-30T12:31:15.826Z,102471.31
2022-11-30T12:33:42.876Z,102475.31
2022-11-30T12:36:48.491Z,102470.34
2022-11-30T12:39:32.331Z,102469.53
2022-11-30T12:42:15.338Z,102465.81
2022-11-30T12:44:45.965Z,102464.03
2022-11-30T12:48:01.820Z,102474.94
2022-11-30T12:51:10.948Z,102472.91
2022-11-30T12:54:05.641Z,102479.44
2022-11-30T12:56:55.842Z,102470.81
2022-11-30T12:59:33.739Z,102457.94
2022-11-30T13:02:40.948Z,102475.22
2022-11-30T13:05:54.790Z,102472.53
2022-11-30T13:08:34.975Z,102471.59
2022-11-30T13:11:11.724Z,102470.75
2022-11-30T13:13:52.700Z,102471.41
2022-11-30T13:16:22.788Z,102476.28
2022-11-30T13:18:52.946Z,102473.09
2022-11-30T13:21:42.161Z,102474.31
2022-11-30T13:24:29.155Z,102476.06
2022-11-30T13:27:16.229Z,102475.53
2022-11-30T13:30:16.967Z,102474.19
2022-11-30T13:32:59.455Z,102469.13
2022-11-30T13:35:29.597Z,102474.94
2022-11-30T13:38:35.879Z,102465.16
2022-11-30T13:41:05.713Z,102470.75
2022-11-30T13:43:48.109Z,102470.00
2022-11-30T13:46:33.023Z,102472.72
2022-11-30T13:49:29.081Z,102477.94
2022-11-30T13:52:21.577Z,102468.25
2022-11-30T13:54:50.776Z,102479.44
2022-11-30T13:57:30.411Z,102492.00
2022-11-30T14:00:22.914Z,102489.13
2022-11-30T14:02:54.507Z,102490.19
2022-11-30T14:05:38.722Z,102488.22
2022-11-30T14:08:13.913Z,102496.56
2022-11-30T14:10:51.680Z,102486.81
2022-11-30T14:13:22.766Z,102490.22
2022-11-30T14:16:00.486Z,102490.09
2022-11-30T14:18:40.487Z,102493.66
2022-11-30T14:21:18.573Z,102489.53
2022-11-30T14:24:15.797Z,102487.44
2022-11-30T14:26:50.485Z,102485.44
2022-11-30T14:29:31.502Z,102494.38
2022-11-30T14:32:18.461Z,102491.72
2022-11-30T14:34:52.309Z,102504.00
2022-11-30T14:37:27.154Z,102492.16
2022-11-30T14:39:56.753Z,102491.53
2022-11-30T14:42:26.323Z,102492.31
2022-11-30T14:44:57.674Z,102483.25
2022-11-30T14:47:35.751Z,102485.88
2022-11-30T14:50:08.341Z,102495.50
2022-11-30T14:52:52.108Z,102493.97
2022-11-30T14:55:57.575Z,102495.59
2022-11-30T14:58:42.310Z,102497.44
2022-11-30T15:01:25.410Z,102502.34
2022-11-30T15:04:02.820Z,102501.56
2022-11-30T15:06:33.420Z,102506.97
2022-11-30T15:09:02.366Z,102499.56
2022-11-30T15:11:29.908Z,102508.47
2022-11-30T15:14:26.075Z,102509.09
2022-11-30T15:16:58.078Z,102496.22
2022-11-30T15:19:29.140Z,102510.66
2022-11-30T15:21:58.368Z,102519.66
2022-11-30T15:24:27.014Z,102518.47
2022-11-30T15:27:10.596Z,102517.38
2022-11-30T15:30:03.154Z,102517.91
2022-11-30T15:32:30.285Z,102518.03
2022-11-30T15:35:01.090Z,102525.75
2022-11-30T15:37:38.969Z,102524.91
2022-11-30T15:40:10.916Z,102528.72
2022-11-30T15:42:40.549Z,102522.59
2022-11-30T15:45:21.747Z,102535.69
2022-11-30T15:47:49.171Z,102528.19
2022-11-30T15:50:30.933Z,102528.06
2022-11-30T15:53:03.801Z,102527.44
2022-11-30T15:56:07.677Z,102535.59
2022-11-30T15:59:08.202Z,102531.97
2022-11-30T16:02:16.001Z,102522.22
2022-11-30T16:04:58.268Z,102525.75
2022-11-30T16:07:33.429Z,102533.34
2022-11-30T16:10:16.459Z,102524.16
2022-11-30T16:12:45.024Z,102532.00
2022-11-30T16:15:20.033Z,102534.94
2022-11-30T16:17:47.336Z,102524.47
2022-11-30T16:20:15.879Z,102528.59
2022-11-30T16:22:46.184Z,102526.91
2022-11-30T16:25:17.372Z,102533.19
2022-11-30T16:27:47.783Z,102534.38
2022-11-30T16:30:19.258Z,102539.50
2022-11-30T16:32:46.990Z,102534.38
2022-11-30T16:35:50.900Z,102526.59
2022-11-30T16:38:20.348Z,102526.78
2022-11-30T16:40:47.596Z,102535.41
2022-11-30T16:43:15.232Z,102531.94
2022-11-30T16:45:44.192Z,102535.56
2022-11-30T16:48:11.332Z,102540.44
2022-11-30T16:50:44.638Z,102540.69
2022-11-30T16:53:15.281Z,102537.22
2022-11-30T16:55:42.909Z,102532.97
2022-11-30T16:58:10.177Z,102541.06
2022-11-30T17:00:40.129Z,102540.47
2022-11-30T17:03:26.524Z,102545.84
2022-11-30T17:05:53.565Z,102537.16
2022-11-30T17:08:20.867Z,102545.75
2022-11-30T17:10:53.074Z,102541.84
2022-11-30T17:13:20.941Z,102542.03
2022-11-30T17:15:49.325Z,102540.50
2022-11-30T17:18:16.352Z,102540.06
2022-11-30T17:20:43.392Z,102540.31
2022-11-30T17:23:12.874Z,102541.47
2022-11-30T17:25:40.027Z,102543.59
2022-11-30T17:28:07.075Z,102544.47
2022-11-30T17:30:36.620Z,102544.34
2022-11-30T17:33:03.720Z,102552.28
2022-11-30T17:35:31.139Z,102548.28
2022-11-30T17:38:00.385Z,102555.97
2022-11-30T17:40:27.372Z,102546.13
2022-11-30T17:42:54.382Z,102556.84
2022-11-30T17:45:21.399Z,102557.94
2022-11-30T17:47:48.433Z,102563.44
2022-11-30T17:50:15.593Z,102563.16
2022-11-30T17:52:42.685Z,102564.72
2022-11-30T17:55:10.244Z,102570.81
2022-11-30T17:57:38.626Z,102569.03
2022-11-30T18:00:08.661Z,102573.25
2022-11-30T18:02:37.925Z,102571.78
2022-11-30T18:05:05.706Z,102569.91
2022-11-30T18:07:32.861Z,102567.72
2022-11-30T18:10:01.824Z,102572.09
2022-11-30T18:12:31.462Z,102565.00
2022-11-30T18:14:58.549Z,102566.69
2022-11-30T18:17:25.648Z,102572.81
2022-11-30T18:19:52.658Z,102577.16
2022-11-30T18:22:19.775Z,102582.69
2022-11-30T18:24:47.223Z,102588.03
2022-11-30T18:27:14.518Z,102578.69
2022-11-30T18:29:41.945Z,102580.81
2022-11-30T18:32:10.480Z,102576.94
2022-11-30T18:34:42.467Z,102582.75
2022-11-30T18:37:09.463Z,102583.31
2022-11-30T18:39:38.530Z,102594.66
2022-11-30T18:42:05.524Z,102596.25
2022-11-30T18:44:33.114Z,102591.91
2022-11-30T18:47:00.149Z,102593.97
2022-11-30T18:49:27.198Z,102589.41
2022-11-30T18:51:54.221Z,102590.09
2022-11-30T18:54:21.308Z,102590.06
2022-11-30T18:56:48.260Z,102592.19
2022-11-30T18:59:20.845Z,102594.31
2022-11-30T19:01:47.949Z,102592.97
2022-11-30T19:04:15.046Z,102590.41
2022-11-30T19:06:43.282Z,102593.16
2022-11-30T19:09:14.491Z,102603.16
2022-11-30T19:11:45.663Z,102597.41
2022-11-30T19:14:15.307Z,102599.56
2022-11-30T19:16:43.871Z,102590.88
2022-11-30T19:19:14.095Z,102594.72
2022-11-30T19:21:47.955Z,102604.66
2022-11-30T19:24:16.405Z,102604.09
2022-11-30T19:26:43.394Z,102602.91
2022-11-30T19:29:12.047Z,102596.91
2022-11-30T19:31:39.441Z,102609.50
2022-11-30T19:34:10.808Z,102606.56
2022-11-30T19:36:39.582Z,102602.16
2022-11-30T19:39:06.681Z,102602.09
2022-11-30T19:41:35.763Z,102604.19
2022-11-30T19:44:04.273Z,102600.47
2022-11-30T19:46:33.194Z,102597.16
2022-11-30T19:49:04.144Z,102608.97
2022-11-30T19:51:32.087Z,102610.00
2022-11-30T19:53:59.791Z,102613.56
2022-11-30T19:56:31.593Z,102609.28
2022-11-30T19:59:04.378Z,102613.28
2022-11-30T20:01:35.052Z,102614.13
2022-11-30T20:04:04.845Z,102609.53
2022-11-30T20:06:38.439Z,102608.78
2022-11-30T20:09:08.563Z,102608.97
2022-11-30T20:11:35.613Z,102614.00
2022-11-30T20:14:02.901Z,102613.38
2022-11-30T20:16:30.221Z,102617.41
2022-11-30T20:19:03.417Z,102614.56
2022-11-30T20:21:34.421Z,102614.03
2022-11-30T20:24:06.742Z,102607.13
2022-11-30T20:26:40.417Z,102609.66
2022-11-30T20:29:16.357Z,102606.56
2022-11-30T20:31:48.477Z,102601.38
2022-11-30T20:34:16.631Z,102619.28
2022-11-30T20:36:46.984Z,102616.75
2022-11-30T20:39:15.520Z,102608.78
2022-11-30T20:41:44.844Z,102616.09
2022-11-30T20:44:17.023Z,102613.41
2022-11-30T20:46:44.405Z,102613.44
2022-11-30T20:49:17.985Z,102613.19
2022-11-30T20:51:47.013Z,102617.03
2022-11-30T20:54:15.641Z,102627.09
2022-11-30T20:56:42.706Z,102619.63
2022-11-30T20:59:19.563Z,102620.28
2022-11-30T21:01:48.122Z,102624.03
2022-11-30T21:04:15.182Z,102623.13
2022-11-30T21:06:45.634Z,102622.91
2022-11-30T21:09:18.164Z,102619.50
2022-11-30T21:11:47.074Z,102629.72
2022-11-30T21:14:14.833Z,102623.59
2022-11-30T21:16:41.964Z,102624.50
2022-11-30T21:19:14.481Z,102624.88
2022-11-30T21:21:43.649Z,102627.84
2022-11-30T21:24:12.049Z,102621.53
2022-11-30T21:26:42.705Z,102630.78
2022-11-30T21:29:15.949Z,102638.97
2022-11-30T21:31:43.682Z,102633.50
2022-11-30T21:34:13.834Z,102639.81
2022-11-30T21:36:40.886Z,102630.22
2022-11-30T21:39:15.734Z,102636.75
2022-11-30T21:41:42.867Z,102632.88
2022-11-30T21:44:15.344Z,102632.00
2022-11-30T21:46:45.645Z,102631.47
2022-11-30T21:49:14.997Z,102629.72
2022-11-30T21:51:42.805Z,102637.22
2022-11-30T21:54:13.154Z,102625.00
2022-11-30T21:56:44.939Z,102625.78
2022-11-30T21:59:14.728Z,102622.78
2022-11-30T22:01:47.767Z,102628.59
2022-11-30T22:04:15.767Z,102630.53
2022-11-30T22:06:43.498Z,102634.41
2022-11-30T22:09:17.059Z,102631.53
2022-11-30T22:11:45.543Z,102636.66
2022-11-30T22:14:16.288Z,102637.94
2022-11-30T22:16:43.950Z,102630.75
2022-11-30T22:19:11.295Z,102631.03
2022-11-30T22:21:38.659Z,102623.72
2022-11-30T22:24:09.813Z,102627.72
2022-11-30T22:26:42.652Z,102622.63
2022-11-30T22:29:22.620Z,102616.41
2022-11-30T22:31:52.830Z,102618.72
2022-11-30T22:34:21.099Z,102621.22
2022-11-30T22:36:50.759Z,102629.56
2022-11-30T22:39:20.718Z,102625.06
2022-11-30T22:41:54.569Z,102630.31
2022-11-30T22:44:26.542Z,102624.91
2022-11-30T22:46:53.727Z,102622.84
2022-11-30T22:49:22.048Z,102622.81
2022-11-30T22:51:49.701Z,102622.25
2022-11-30T22:54:17.349Z,102634.31
2022-11-30T22:56:46.748Z,102619.25
2022-11-30T22:59:14.542Z,102617.56
2022-11-30T23:01:47.778Z,102619.47
2022-11-30T23:04:21.287Z,102608.69
2022-11-30T23:06:50.051Z,102612.56
2022-11-30T23:09:22.915Z,102607.59
2022-11-30T23:11:52.847Z,102601.97
2022-11-30T23:14:20.200Z,102596.25
2022-11-30T23:16:49.436Z,102599.97
2022-11-30T23:19:16.801Z,102596.66
2022-11-30T23:21:48.871Z,102601.38
2022-11-30T23:24:23.909Z,102599.41
2022-11-30T23:26:51.093Z,102596.06
2022-11-30T23:29:21.125Z,102601.00
2022-11-30T23:31:48.635Z,102607.56
2022-11-30T23:34:22.332Z,102601.34
2022-11-30T23:36:50.472Z,102605.16
2022-11-30T23:39:19.507Z,102598.97
2022-11-30T23:41:49.116Z,102597.31
2022-11-30T23:44:16.469Z,102594.31
2022-11-30T23:46:43.539Z,102595.53
2022-11-30T23:49:14.239Z,102591.31
2022-11-30T23:51:42.003Z,102598.91
2022-11-30T23:54:09.394Z,102590.47
2022-11-30T23:56:36.476Z,102599.31
2022-11-30T23:59:03.566Z,102593.09
